sensor_id;sensor_type;location;lat;lon;timestamp;pressure;altitude;pressure_sealevel;temperature;humidity
49194;BME280;35029;50.804;12.866;2022-09-03T00:01:24;97804.44;;;11.65;73.11
49194;BME280;35029;50.804;12.866;2022-09-03T00:03:59;97801.00;;;11.65;72.93
49194;BME280;35029;50.804;12.866;2022-09-03T00:06:37;97804.91;;;11.76;73.41
49194;BME280;35029;50.804;12.866;2022-09-03T00:09:11;97801.44;;;11.75;73.20
49194;BME280;35029;50.804;12.866;2022-09-03T00:12:39;97802.66;;;11.79;74.01
49194;BME280;35029;50.804;12.866;2022-09-03T00:14:52;97782.84;;;11.75;73.39
49194;BME280;35029;50.804;12.866;2022-09-03T00:17:24;97798.16;;;11.80;74.25
49194;BME280;35029;50.804;12.866;2022-09-03T00:19:59;97793.88;;;11.79;73.88
49194;BME280;35029;50.804;12.866;2022-09-03T00:22:41;97790.19;;;11.80;73.95
49194;BME280;35029;50.804;12.866;2022-09-03T00:25:12;97761.78;;;11.67;73.32
49194;BME280;35029;50.804;12.866;2022-09-03T00:27:40;97795.94;;;11.90;73.21
49194;BME280;35029;50.804;12.866;2022-09-03T00:30:10;97800.00;;;11.93;73.47
49194;BME280;35029;50.804;12.866;2022-09-03T00:33:00;97790.00;;;11.88;73.77
49194;BME280;35029;50.804;12.866;2022-09-03T00:36:01;97793.44;;;11.82;73.48
49194;BME280;35029;50.804;12.866;2022-09-03T00:38:31;97786.91;;;11.84;73.59
49194;BME280;35029;50.804;12.866;2022-09-03T00:49:20;97785.16;;;11.98;72.87
49194;BME280;35029;50.804;12.866;2022-09-03T00:57:45;97787.81;;;11.98;72.81
49194;BME280;35029;50.804;12.866;2022-09-03T01:00:17;97782.06;;;11.95;73.18
49194;BME280;35029;50.804;12.866;2022-09-03T01:10:52;97787.75;;;11.78;73.45
49194;BME280;35029;50.804;12.866;2022-09-03T01:13:35;97788.13;;;11.69;72.90
49194;BME280;35029;50.804;12.866;2022-09-03T01:16:19;97786.88;;;11.58;73.01
49194;BME280;35029;50.804;12.866;2022-09-03T01:29:49;97799.91;;;11.46;73.94
49194;BME280;35029;50.804;12.866;2022-09-03T01:35:09;97797.66;;;11.36;74.21
49194;BME280;35029;50.804;12.866;2022-09-03T01:40:11;97791.91;;;11.32;74.46
49194;BME280;35029;50.804;12.866;2022-09-03T01:50:50;97791.09;;;11.32;75.24
49194;BME280;35029;50.804;12.866;2022-09-03T01:56:56;97789.25;;;11.32;74.46
49194;BME280;35029;50.804;12.866;2022-09-03T01:59:42;97795.78;;;11.30;74.36
49194;BME280;35029;50.804;12.866;2022-09-03T02:02:19;97788.44;;;11.32;74.73
49194;BME280;35029;50.804;12.866;2022-09-03T02:05:07;97773.47;;;11.18;75.09
49194;BME280;35029;50.804;12.866;2022-09-03T02:07:45;97776.56;;;11.21;75.35
49194;BME280;35029;50.804;12.866;2022-09-03T02:10:15;97790.47;;;11.30;75.33
49194;BME280;35029;50.804;12.866;2022-09-03T02:12:46;97775.94;;;11.19;75.71
49194;BME280;35029;50.804;12.866;2022-09-03T02:15:16;97789.44;;;11.24;75.34
49194;BME280;35029;50.804;12.866;2022-09-03T02:17:44;97784.13;;;11.24;75.05
49194;BME280;35029;50.804;12.866;2022-09-03T02:20:16;97783.88;;;11.19;75.69
49194;BME280;35029;50.804;12.866;2022-09-03T02:22:44;97776.09;;;11.11;75.74
49194;BME280;35029;50.804;12.866;2022-09-03T02:25:11;97776.09;;;11.11;75.17
49194;BME280;35029;50.804;12.866;2022-09-03T02:27:38;97790.41;;;11.16;75.47
49194;BME280;35029;50.804;12.866;2022-09-03T02:30:05;97779.78;;;11.10;75.45
49194;BME280;35029;50.804;12.866;2022-09-03T02:32:31;97785.66;;;11.05;74.97
49194;BME280;35029;50.804;12.866;2022-09-03T02:34:57;97776.69;;;10.99;75.47
49194;BME280;35029;50.804;12.866;2022-09-03T02:37:23;97772.13;;;10.87;75.40
49194;BME280;35029;50.804;12.866;2022-09-03T02:39:49;97788.22;;;10.85;75.62
49194;BME280;35029;50.804;12.866;2022-09-03T02:42:17;97781.50;;;10.82;75.62
49194;BME280;35029;50.804;12.866;2022-09-03T02:44:56;97781.94;;;10.93;75.90
49194;BME280;35029;50.804;12.866;2022-09-03T02:47:28;97787.44;;;10.91;76.03
49194;BME280;35029;50.804;12.866;2022-09-03T02:49:56;97778.47;;;10.92;75.68
49194;BME280;35029;50.804;12.866;2022-09-03T02:52:24;97774.38;;;10.90;75.80
49194;BME280;35029;50.804;12.866;2022-09-03T02:54:50;97788.66;;;10.89;75.56
49194;BME280;35029;50.804;12.866;2022-09-03T02:57:16;97784.56;;;10.86;75.90
49194;BME280;35029;50.804;12.866;2022-09-03T02:59:42;97787.00;;;10.88;75.96
49194;BME280;35029;50.804;12.866;2022-09-03T03:02:12;97776.38;;;10.81;76.20
49194;BME280;35029;50.804;12.866;2022-09-03T03:04:38;97775.13;;;10.77;76.51
49194;BME280;35029;50.804;12.866;2022-09-03T03:07:04;97774.75;;;10.80;76.71
49194;BME280;35029;50.804;12.866;2022-09-03T03:09:30;97779.63;;;10.76;77.06
49194;BME280;35029;50.804;12.866;2022-09-03T03:11:55;97775.13;;;10.77;77.25
49194;BME280;35029;50.804;12.866;2022-09-03T03:14:21;97781.91;;;10.86;77.29
49194;BME280;35029;50.804;12.866;2022-09-03T03:16:48;97777.59;;;10.85;77.61
49194;BME280;35029;50.804;12.866;2022-09-03T03:19:14;97778.22;;;10.80;77.62
49194;BME280;35029;50.804;12.866;2022-09-03T03:21:39;97777.78;;;10.77;78.02
49194;BME280;35029;50.804;12.866;2022-09-03T03:24:05;97771.03;;;10.74;78.07
49194;BME280;35029;50.804;12.866;2022-09-03T03:26:31;97770.66;;;10.77;77.90
49194;BME280;35029;50.804;12.866;2022-09-03T03:28:59;97778.47;;;10.92;78.17
49194;BME280;35029;50.804;12.866;2022-09-03T03:31:26;97776.03;;;10.97;77.64
49194;BME280;35029;50.804;12.866;2022-09-03T03:33:58;97778.28;;;10.94;78.21
49194;BME280;35029;50.804;12.866;2022-09-03T03:36:26;97772.16;;;10.93;77.70
49194;BME280;35029;50.804;12.866;2022-09-03T03:38:53;97770.72;;;10.97;78.04
49194;BME280;35029;50.804;12.866;2022-09-03T03:41:21;97770.13;;;10.95;77.59
49194;BME280;35029;50.804;12.866;2022-09-03T03:43:47;97748.66;;;10.83;77.97
49194;BME280;35029;50.804;12.866;2022-09-03T03:46:16;97761.53;;;10.87;78.03
49194;BME280;35029;50.804;12.866;2022-09-03T03:48:41;97757.63;;;10.82;78.29
49194;BME280;35029;50.804;12.866;2022-09-03T03:51:08;97761.69;;;10.85;78.10
49194;BME280;35029;50.804;12.866;2022-09-03T03:53:37;97749.84;;;10.81;78.38
49194;BME280;35029;50.804;12.866;2022-09-03T03:56:06;97767.00;;;10.85;78.17
49194;BME280;35029;50.804;12.866;2022-09-03T03:58:32;97767.81;;;10.79;77.77
49194;BME280;35029;50.804;12.866;2022-09-03T04:01:11;97772.09;;;10.80;77.84
49194;BME280;35029;50.804;12.866;2022-09-03T04:03:38;97748.59;;;10.77;77.92
49194;BME280;35029;50.804;12.866;2022-09-03T04:06:04;97752.66;;;10.73;78.16
49194;BME280;35029;50.804;12.866;2022-09-03T04:08:34;97749.59;;;10.69;77.93
49194;BME280;35029;50.804;12.866;2022-09-03T04:11:01;97751.66;;;10.74;77.87
49194;BME280;35029;50.804;12.866;2022-09-03T04:13:34;97719.13;;;10.52;77.83
49194;BME280;35029;50.804;12.866;2022-09-03T04:16:20;97760.25;;;10.76;78.12
49194;BME280;35029;50.804;12.866;2022-09-03T04:18:47;97758.38;;;10.70;77.79
49194;BME280;35029;50.804;12.866;2022-09-03T04:21:16;97754.28;;;10.67;77.76
49194;BME280;35029;50.804;12.866;2022-09-03T04:23:44;97758.75;;;10.67;77.85
49194;BME280;35029;50.804;12.866;2022-09-03T04:26:12;97756.31;;;10.65;77.83
49194;BME280;35029;50.804;12.866;2022-09-03T04:28:37;97756.50;;;10.63;77.73
49194;BME280;35029;50.804;12.866;2022-09-03T04:31:05;97754.47;;;10.65;78.11
49194;BME280;35029;50.804;12.866;2022-09-03T04:33:32;97758.31;;;10.63;78.17
49194;BME280;35029;50.804;12.866;2022-09-03T04:36:09;97753.81;;;10.57;78.51
49194;BME280;35029;50.804;12.866;2022-09-03T04:38:38;97759.13;;;10.57;77.91
49194;BME280;35029;50.804;12.866;2022-09-03T04:41:08;97758.28;;;10.56;78.68
49194;BME280;35029;50.804;12.866;2022-09-03T04:43:34;97758.94;;;10.58;79.05
49194;BME280;35029;50.804;12.866;2022-09-03T04:46:02;97759.78;;;10.65;78.92
49194;BME280;35029;50.804;12.866;2022-09-03T04:48:29;97748.56;;;10.70;78.67
49194;BME280;35029;50.804;12.866;2022-09-03T04:51:04;97751.06;;;10.72;79.05
49194;BME280;35029;50.804;12.866;2022-09-03T04:53:41;97753.50;;;10.73;78.73
49194;BME280;35029;50.804;12.866;2022-09-03T04:56:16;97748.81;;;10.75;78.79
49194;BME280;35029;50.804;12.866;2022-09-03T04:58:43;97758.22;;;10.78;78.41
49194;BME280;35029;50.804;12.866;2022-09-03T05:01:19;97756.81;;;10.82;78.74
49194;BME280;35029;50.804;12.866;2022-09-03T05:03:45;97759.06;;;10.85;78.38
49194;BME280;35029;50.804;12.866;2022-09-03T05:06:12;97744.53;;;10.81;78.04
49194;BME280;35029;50.804;12.866;2022-09-03T05:08:38;97760.50;;;10.88;78.44
49194;BME280;35029;50.804;12.866;2022-09-03T05:11:06;97759.69;;;10.87;78.87
49194;BME280;35029;50.804;12.866;2022-09-03T05:13:33;97763.34;;;10.86;78.55
49194;BME280;35029;50.804;12.866;2022-09-03T05:16:00;97762.56;;;10.92;79.10
49194;BME280;35029;50.804;12.866;2022-09-03T05:18:27;97772.56;;;10.97;79.37
49194;BME280;35029;50.804;12.866;2022-09-03T05:21:00;97750.91;;;10.87;79.64
49194;BME280;35029;50.804;12.866;2022-09-03T05:23:27;97757.31;;;10.99;79.26
49194;BME280;35029;50.804;12.866;2022-09-03T05:25:58;97767.75;;;11.07;79.63
49194;BME280;35029;50.804;12.866;2022-09-03T05:28:26;97763.88;;;11.10;80.35
49194;BME280;35029;50.804;12.866;2022-09-03T05:31:15;97753.84;;;11.05;80.19
49194;BME280;35029;50.804;12.866;2022-09-03T05:33:43;97770.63;;;11.19;80.28
49194;BME280;35029;50.804;12.866;2022-09-03T05:36:14;97776.56;;;11.21;80.49
49194;BME280;35029;50.804;12.866;2022-09-03T05:38:41;97774.09;;;11.20;80.54
49194;BME280;35029;50.804;12.866;2022-09-03T05:41:09;97773.47;;;11.18;81.67
49194;BME280;35029;50.804;12.866;2022-09-03T05:43:35;97774.31;;;11.18;82.29
49194;BME280;35029;50.804;12.866;2022-09-03T05:46:09;97776.34;;;11.23;82.52
49194;BME280;35029;50.804;12.866;2022-09-03T05:48:37;97766.34;;;11.18;82.99
49194;BME280;35029;50.804;12.866;2022-09-03T05:53:33;97771.28;;;11.28;83.68
49194;BME280;35029;50.804;12.866;2022-09-03T05:56:05;97781.09;;;11.41;83.10
49194;BME280;35029;50.804;12.866;2022-09-03T05:58:32;97770.13;;;11.57;81.85
49194;BME280;35029;50.804;12.866;2022-09-03T06:00:59;97767.69;;;11.69;80.53
49194;BME280;35029;50.804;12.866;2022-09-03T06:03:25;97766.72;;;11.90;79.23
49194;BME280;35029;50.804;12.866;2022-09-03T06:05:52;97774.72;;;12.10;78.96
49194;BME280;35029;50.804;12.866;2022-09-03T06:08:19;97784.34;;;12.25;78.14
49194;BME280;35029;50.804;12.866;2022-09-03T06:10:45;97767.38;;;12.26;77.39
49194;BME280;35029;50.804;12.866;2022-09-03T06:13:11;97783.50;;;12.44;76.68
49194;BME280;35029;50.804;12.866;2022-09-03T06:15:36;97779.19;;;12.50;76.37
49194;BME280;35029;50.804;12.866;2022-09-03T06:18:02;97781.03;;;12.63;75.16
49194;BME280;35029;50.804;12.866;2022-09-03T06:20:28;97778.13;;;12.71;74.84
49194;BME280;35029;50.804;12.866;2022-09-03T06:22:54;97778.50;;;12.81;74.26
49194;BME280;35029;50.804;12.866;2022-09-03T06:25:20;97771.94;;;12.91;74.24
49194;BME280;35029;50.804;12.866;2022-09-03T06:27:46;97762.28;;;12.96;74.11
49194;BME280;35029;50.804;12.866;2022-09-03T06:30:12;97750.84;;;12.96;73.57
49194;BME280;35029;50.804;12.866;2022-09-03T06:32:48;97766.13;;;13.14;73.40
49194;BME280;35029;50.804;12.866;2022-09-03T06:35:17;97772.41;;;13.26;72.90
49194;BME280;35029;50.804;12.866;2022-09-03T06:37:43;97768.69;;;13.34;72.17
49194;BME280;35029;50.804;12.866;2022-09-03T06:40:10;97775.22;;;13.45;72.06
49194;BME280;35029;50.804;12.866;2022-09-03T06:42:38;97779.88;;;13.56;72.51
49194;BME280;35029;50.804;12.866;2022-09-03T06:45:06;97773.56;;;13.50;72.17
49194;BME280;35029;50.804;12.866;2022-09-03T06:47:32;97776.97;;;13.64;71.50
49194;BME280;35029;50.804;12.866;2022-09-03T06:49:59;97777.34;;;13.68;71.13
49194;BME280;35029;50.804;12.866;2022-09-03T06:52:26;97769.31;;;13.75;69.85
49194;BME280;35029;50.804;12.866;2022-09-03T06:54:52;97775.91;;;13.97;69.15
49194;BME280;35029;50.804;12.866;2022-09-03T06:57:18;97765.88;;;13.99;67.89
49194;BME280;35029;50.804;12.866;2022-09-03T06:59:43;97754.41;;;13.99;68.47
49194;BME280;35029;50.804;12.866;2022-09-03T07:02:09;97778.59;;;14.23;68.36
49194;BME280;35029;50.804;12.866;2022-09-03T07:04:34;97782.81;;;14.37;66.45
49194;BME280;35029;50.804;12.866;2022-09-03T07:07:00;97775.34;;;14.46;66.77
49194;BME280;35029;50.804;12.866;2022-09-03T07:09:27;97773.41;;;14.53;65.67
49194;BME280;35029;50.804;12.866;2022-09-03T07:11:53;97771.19;;;14.75;65.40
49194;BME280;35029;50.804;12.866;2022-09-03T07:14:20;97769.59;;;14.86;65.00
49194;BME280;35029;50.804;12.866;2022-09-03T07:16:47;97769.47;;;14.99;64.26
49194;BME280;35029;50.804;12.866;2022-09-03T07:19:14;97768.81;;;15.04;62.99
49194;BME280;35029;50.804;12.866;2022-09-03T07:21:40;97764.59;;;15.15;62.19
49194;BME280;35029;50.804;12.866;2022-09-03T07:24:07;97754.31;;;15.12;61.98
49194;BME280;35029;50.804;12.866;2022-09-03T07:26:35;97772.41;;;15.28;61.73
49194;BME280;35029;50.804;12.866;2022-09-03T07:29:03;97774.09;;;15.41;62.09
49194;BME280;35029;50.804;12.866;2022-09-03T07:31:34;97774.00;;;15.48;61.37
49194;BME280;35029;50.804;12.866;2022-09-03T07:34:03;97765.09;;;15.54;61.20
49194;BME280;35029;50.804;12.866;2022-09-03T07:36:34;97762.78;;;15.58;60.73
49194;BME280;35029;50.804;12.866;2022-09-03T07:39:00;97748.38;;;15.59;60.88
49194;BME280;35029;50.804;12.866;2022-09-03T07:41:26;97760.19;;;15.81;60.42
49194;BME280;35029;50.804;12.866;2022-09-03T07:43:52;97753.16;;;15.87;58.40
49194;BME280;35029;50.804;12.866;2022-09-03T07:46:23;97746.16;;;15.98;59.12
49194;BME280;35029;50.804;12.866;2022-09-03T07:48:51;97757.59;;;16.17;58.89
49194;BME280;35029;50.804;12.866;2022-09-03T07:51:18;97737.03;;;16.17;58.34
49194;BME280;35029;50.804;12.866;2022-09-03T07:53:45;97761.47;;;16.45;57.71
49194;BME280;35029;50.804;12.866;2022-09-03T07:56:11;97763.66;;;16.48;57.16
49194;BME280;35029;50.804;12.866;2022-09-03T07:58:37;97767.25;;;16.53;56.89
49194;BME280;35029;50.804;12.866;2022-09-03T08:01:05;97755.41;;;16.61;56.62
49194;BME280;35029;50.804;12.866;2022-09-03T08:03:34;97763.44;;;16.73;56.68
49194;BME280;35029;50.804;12.866;2022-09-03T08:06:01;97762.81;;;16.83;56.71
49194;BME280;35029;50.804;12.866;2022-09-03T08:08:27;97755.13;;;16.98;54.82
49194;BME280;35029;50.804;12.866;2022-09-03T08:10:54;97756.88;;;17.04;54.98
49194;BME280;35029;50.804;12.866;2022-09-03T08:13:22;97758.59;;;17.11;55.08
49194;BME280;35029;50.804;12.866;2022-09-03T08:15:54;97753.84;;;17.13;54.65
49194;BME280;35029;50.804;12.866;2022-09-03T08:18:20;97752.25;;;17.29;54.42
49194;BME280;35029;50.804;12.866;2022-09-03T08:20:46;97750.13;;;17.43;54.64
49194;BME280;35029;50.804;12.866;2022-09-03T08:23:12;97751.03;;;17.48;51.96
49194;BME280;35029;50.804;12.866;2022-09-03T08:25:39;97748.19;;;17.55;51.72
49194;BME280;35029;50.804;12.866;2022-09-03T08:28:04;97746.28;;;17.67;50.88
49194;BME280;35029;50.804;12.866;2022-09-03T08:30:29;97754.88;;;17.69;50.10
49194;BME280;35029;50.804;12.866;2022-09-03T08:32:55;97750.84;;;17.84;50.98
49194;BME280;35029;50.804;12.866;2022-09-03T08:35:21;97751.75;;;17.89;50.41
49194;BME280;35029;50.804;12.866;2022-09-03T08:37:47;97748.59;;;17.93;50.70
49194;BME280;35029;50.804;12.866;2022-09-03T08:40:16;97748.44;;;17.99;50.25
49194;BME280;35029;50.804;12.866;2022-09-03T08:42:57;97756.56;;;18.04;49.60
49194;BME280;35029;50.804;12.866;2022-09-03T08:45:30;97737.16;;;18.14;50.28
49194;BME280;35029;50.804;12.866;2022-09-03T08:48:09;97735.09;;;18.21;50.62
49194;BME280;35029;50.804;12.866;2022-09-03T08:50:41;97729.81;;;18.27;49.55
49194;BME280;35029;50.804;12.866;2022-09-03T08:53:20;97728.44;;;18.41;48.70
49194;BME280;35029;50.804;12.866;2022-09-03T08:56:06;97727.13;;;18.44;50.97
49194;BME280;35029;50.804;12.866;2022-09-03T08:58:33;97732.94;;;18.57;48.29
49194;BME280;35029;50.804;12.866;2022-09-03T09:01:05;97732.97;;;18.80;48.53
49194;BME280;35029;50.804;12.866;2022-09-03T09:08:58;97722.22;;;18.57;45.90
49194;BME280;35029;50.804;12.866;2022-09-03T09:14:37;97725.38;;;18.94;45.42
49194;BME280;35029;50.804;12.866;2022-09-03T09:20:02;97715.78;;;19.20;45.37
49194;BME280;35029;50.804;12.866;2022-09-03T09:22:35;97717.69;;;19.24;43.86
49194;BME280;35029;50.804;12.866;2022-09-03T09:25:08;97725.50;;;19.26;43.98
49194;BME280;35029;50.804;12.866;2022-09-03T09:27:47;97720.78;;;19.38;44.54
49194;BME280;35029;50.804;12.866;2022-09-03T09:30:16;97714.59;;;19.38;44.61
49194;BME280;35029;50.804;12.866;2022-09-03T09:32:42;97718.34;;;19.37;41.59
49194;BME280;35029;50.804;12.866;2022-09-03T09:35:09;97718.66;;;19.40;43.18
49194;BME280;35029;50.804;12.866;2022-09-03T09:37:49;97719.63;;;19.56;46.39
49194;BME280;35029;50.804;12.866;2022-09-03T09:43:19;97714.19;;;19.79;42.34
49194;BME280;35029;50.804;12.866;2022-09-03T09:45:52;97709.88;;;19.77;41.13
49194;BME280;35029;50.804;12.866;2022-09-03T09:48:27;97708.97;;;19.94;42.09
49194;BME280;35029;50.804;12.866;2022-09-03T09:53:46;97703.19;;;20.13;41.51
49194;BME280;35029;50.804;12.866;2022-09-03T09:56:23;97705.88;;;20.13;43.25
49194;BME280;35029;50.804;12.866;2022-09-03T09:58:49;97704.34;;;19.89;39.15
49194;BME280;35029;50.804;12.866;2022-09-03T10:01:22;97697.25;;;20.10;42.27
49194;BME280;35029;50.804;12.866;2022-09-03T10:03:52;97682.56;;;20.29;42.31
49194;BME280;35029;50.804;12.866;2022-09-03T10:06:29;97683.47;;;20.44;42.13
49194;BME280;35029;50.804;12.866;2022-09-03T10:09:16;97688.34;;;20.53;41.12
49194;BME280;35029;50.804;12.866;2022-09-03T10:14:38;97689.31;;;20.79;40.69
49194;BME280;35029;50.804;12.866;2022-09-03T10:19:42;97697.88;;;20.71;38.05
49194;BME280;35029;50.804;12.866;2022-09-03T10:22:32;97684.03;;;20.47;37.50
49194;BME280;35029;50.804;12.866;2022-09-03T10:25:03;97695.53;;;20.37;39.05
49194;BME280;35029;50.804;12.866;2022-09-03T10:27:29;97690.97;;;20.37;38.09
49194;BME280;35029;50.804;12.866;2022-09-03T10:29:57;97689.72;;;20.55;40.20
49194;BME280;35029;50.804;12.866;2022-09-03T10:32:40;97685.00;;;20.83;39.75
49194;BME280;35029;50.804;12.866;2022-09-03T10:37:50;97671.38;;;21.05;38.58
49194;BME280;35029;50.804;12.866;2022-09-03T10:40:41;97677.34;;;21.33;39.37
49194;BME280;35029;50.804;12.866;2022-09-03T10:43:36;97677.91;;;21.51;38.02
49194;BME280;35029;50.804;12.866;2022-09-03T10:46:10;97666.34;;;21.50;40.13
49194;BME280;35029;50.804;12.866;2022-09-03T11:05:14;97667.44;;;21.54;41.31
49194;BME280;35029;50.804;12.866;2022-09-03T11:08:01;97669.59;;;21.63;38.82
49194;BME280;35029;50.804;12.866;2022-09-03T11:10:29;97666.09;;;21.67;38.44
49194;BME280;35029;50.804;12.866;2022-09-03T11:15:32;97653.16;;;21.90;39.53
49194;BME280;35029;50.804;12.866;2022-09-03T11:18:19;97656.63;;;22.06;39.52
49194;BME280;35029;50.804;12.866;2022-09-03T11:20:48;97655.03;;;22.05;35.09
49194;BME280;35029;50.804;12.866;2022-09-03T11:23:15;97653.13;;;22.05;38.94
49194;BME280;35029;50.804;12.866;2022-09-03T11:25:53;97644.47;;;22.14;38.88
49194;BME280;35029;50.804;12.866;2022-09-03T11:34:13;97631.97;;;22.54;38.82
49194;BME280;35029;50.804;12.866;2022-09-03T11:36:39;97629.22;;;22.64;38.92
49194;BME280;35029;50.804;12.866;2022-09-03T11:39:15;97624.59;;;22.75;34.57
49194;BME280;35029;50.804;12.866;2022-09-03T11:41:44;97622.47;;;22.67;36.99
49194;BME280;35029;50.804;12.866;2022-09-03T11:44:21;97620.81;;;22.76;36.30
49194;BME280;35029;50.804;12.866;2022-09-03T11:46:54;97630.66;;;22.41;36.45
49194;BME280;35029;50.804;12.866;2022-09-03T11:49:31;97630.13;;;22.39;37.07
49194;BME280;35029;50.804;12.866;2022-09-03T11:52:02;97631.22;;;22.43;36.92
49194;BME280;35029;50.804;12.866;2022-09-03T11:54:31;97627.63;;;22.58;36.12
49194;BME280;35029;50.804;12.866;2022-09-03T11:57:10;97621.97;;;22.59;37.75
49194;BME280;35029;50.804;12.866;2022-09-03T11:59:39;97622.38;;;22.82;37.06
49194;BME280;35029;50.804;12.866;2022-09-03T12:05:10;97615.91;;;23.33;36.49
49194;BME280;35029;50.804;12.866;2022-09-03T12:07:48;97619.00;;;23.51;37.22
49194;BME280;35029;50.804;12.866;2022-09-03T12:18:28;97612.28;;;23.48;35.83
49194;BME280;35029;50.804;12.866;2022-09-03T12:23:39;97607.91;;;23.82;35.70
49194;BME280;35029;50.804;12.866;2022-09-03T12:26:12;97605.50;;;23.80;33.25
49194;BME280;35029;50.804;12.866;2022-09-03T12:28:41;97600.03;;;23.90;35.44
49194;BME280;35029;50.804;12.866;2022-09-03T12:31:24;97606.06;;;24.06;36.57
49194;BME280;35029;50.804;12.866;2022-09-03T12:34:07;97610.31;;;24.18;35.79
49194;BME280;35029;50.804;12.866;2022-09-03T12:36:39;97602.13;;;24.23;32.38
49194;BME280;35029;50.804;12.866;2022-09-03T12:42:09;97601.94;;;24.14;31.81
49194;BME280;35029;50.804;12.866;2022-09-03T12:44:51;97597.28;;;24.20;34.90
49194;BME280;35029;50.804;12.866;2022-09-03T12:47:20;97587.34;;;24.10;34.07
49194;BME280;35029;50.804;12.866;2022-09-03T12:49:48;97594.34;;;24.16;35.39
49194;BME280;35029;50.804;12.866;2022-09-03T12:57:34;97591.69;;;24.35;33.89
49194;BME280;35029;50.804;12.866;2022-09-03T13:00:05;97586.06;;;24.51;33.83
49194;BME280;35029;50.804;12.866;2022-09-03T13:02:40;97576.28;;;24.55;33.64
49194;BME280;35029;50.804;12.866;2022-09-03T13:05:15;97581.66;;;24.36;31.71
49194;BME280;35029;50.804;12.866;2022-09-03T13:07:48;97572.25;;;24.28;33.17
49194;BME280;35029;50.804;12.866;2022-09-03T13:10:32;97575.94;;;24.37;31.89
49194;BME280;35029;50.804;12.866;2022-09-03T13:13:02;97577.38;;;24.54;33.13
49194;BME280;35029;50.804;12.866;2022-09-03T13:15:31;97574.78;;;24.68;32.82
49194;BME280;35029;50.804;12.866;2022-09-03T13:20:34;97567.19;;;24.89;33.09
49194;BME280;35029;50.804;12.866;2022-09-03T13:26:42;97575.16;;;24.99;34.53
49194;BME280;35029;50.804;12.866;2022-09-03T13:29:17;97572.97;;;25.01;34.20
49194;BME280;35029;50.804;12.866;2022-09-03T13:31:49;97570.03;;;24.97;32.61
49194;BME280;35029;50.804;12.866;2022-09-03T13:34:34;97566.44;;;25.02;34.41
49194;BME280;35029;50.804;12.866;2022-09-03T13:39:40;97551.41;;;24.72;32.19
49194;BME280;35029;50.804;12.866;2022-09-03T13:42:18;97553.28;;;24.52;32.46
49194;BME280;35029;50.804;12.866;2022-09-03T13:47:29;97557.38;;;24.50;33.51
49194;BME280;35029;50.804;12.866;2022-09-03T13:50:17;97561.81;;;24.64;34.87
49194;BME280;35029;50.804;12.866;2022-09-03T13:55:36;97551.63;;;24.75;34.34
49194;BME280;35029;50.804;12.866;2022-09-03T13:58:19;97557.28;;;24.98;35.30
49194;BME280;35029;50.804;12.866;2022-09-03T14:01:03;97565.31;;;25.03;34.47
49194;BME280;35029;50.804;12.866;2022-09-03T14:03:47;97558.09;;;24.98;36.24
49194;BME280;35029;50.804;12.866;2022-09-03T14:06:39;97553.75;;;24.97;34.81
49194;BME280;35029;50.804;12.866;2022-09-03T14:12:04;97560.50;;;25.00;35.18
49194;BME280;35029;50.804;12.866;2022-09-03T14:14:43;97547.09;;;25.09;34.92
49194;BME280;35029;50.804;12.866;2022-09-03T14:20:40;97553.72;;;25.17;34.64
49194;BME280;35029;50.804;12.866;2022-09-03T14:25:54;97553.84;;;25.11;35.31
49194;BME280;35029;50.804;12.866;2022-09-03T14:28:35;97546.78;;;25.10;34.97
49194;BME280;35029;50.804;12.866;2022-09-03T14:34:17;97544.97;;;24.87;32.91
49194;BME280;35029;50.804;12.866;2022-09-03T14:36:50;97552.06;;;24.83;33.79
49194;BME280;35029;50.804;12.866;2022-09-03T14:39:27;97550.91;;;24.70;32.57
49194;BME280;35029;50.804;12.866;2022-09-03T14:41:57;97551.63;;;24.75;33.70
49194;BME280;35029;50.804;12.866;2022-09-03T14:50:43;97553.47;;;24.37;34.88
49194;BME280;35029;50.804;12.866;2022-09-03T14:53:54;97548.13;;;24.07;34.76
49194;BME280;35029;50.804;12.866;2022-09-03T14:56:48;97553.50;;;23.83;37.26
49194;BME280;35029;50.804;12.866;2022-09-03T15:05:26;97549.94;;;24.36;36.88
49194;BME280;35029;50.804;12.866;2022-09-03T15:08:08;97544.25;;;24.57;36.26
49194;BME280;35029;50.804;12.866;2022-09-03T15:10:46;97551.13;;;24.73;36.64
49194;BME280;35029;50.804;12.866;2022-09-03T15:13:27;97549.88;;;24.85;36.87
49194;BME280;35029;50.804;12.866;2022-09-03T15:16:18;97547.09;;;24.90;36.16
49194;BME280;35029;50.804;12.866;2022-09-03T15:24:52;97544.97;;;24.87;34.59
49194;BME280;35029;50.804;12.866;2022-09-03T15:27:36;97540.72;;;24.61;36.05
49194;BME280;35029;50.804;12.866;2022-09-03T15:30:11;97542.72;;;24.75;35.08
49194;BME280;35029;50.804;12.866;2022-09-03T15:32:44;97538.75;;;24.86;35.77
49194;BME280;35029;50.804;12.866;2022-09-03T15:38:07;97545.41;;;24.94;34.74
49194;BME280;35029;50.804;12.866;2022-09-03T15:40:47;97536.56;;;24.88;35.53
49194;BME280;35029;50.804;12.866;2022-09-03T15:43:24;97550.84;;;24.94;34.05
49194;BME280;35029;50.804;12.866;2022-09-03T15:45:54;97552.16;;;24.77;34.01
49194;BME280;35029;50.804;12.866;2022-09-03T15:48:37;97558.16;;;24.74;36.55
49194;BME280;35029;50.804;12.866;2022-09-03T15:51:21;97560.06;;;24.74;35.22
49194;BME280;35029;50.804;12.866;2022-09-03T15:53:57;97552.34;;;24.62;35.34
49194;BME280;35029;50.804;12.866;2022-09-03T15:56:37;97550.06;;;24.50;34.53
49194;BME280;35029;50.804;12.866;2022-09-03T15:59:20;97559.00;;;24.51;34.94
49194;BME280;35029;50.804;12.866;2022-09-03T16:01:53;97548.41;;;24.30;35.25
49194;BME280;35029;50.804;12.866;2022-09-03T16:07:20;97551.06;;;24.11;36.89
49194;BME280;35029;50.804;12.866;2022-09-03T16:10:17;97554.41;;;24.03;37.21